Time;durP1;ratioP1;P1;durP2;ratioP2;P2;SDS_P1;SDS_P2;PMS_P1;PMS_P2;Temp;Humidity;BMP_temperature;BMP_pressure;BME280_temperature;BME280_humidity;BME280_pressure;Samples;Min_cycle;Max_cycle;Signal;HPM_P1;HPM_P2
2021/06/23 00:02:01;;;;;;;16.07;14.60;;;18.60;99.90;;;;;;5074308;28;20170;-88
2021/06/23 00:04:26;;;;;;;17.77;16.07;;;18.60;99.90;;;;;;5074242;28;20647;-87
2021/06/23 00:06:52;;;;;;;15.97;14.57;;;18.60;99.90;;;;;;5073593;28;20181;-88
2021/06/23 00:09:18;;;;;;;15.23;13.93;;;18.60;99.90;;;;;;5074146;28;20666;-87
2021/06/23 00:11:46;;;;;;;14.43;13.03;;;18.60;99.90;;;;;;5073443;28;20219;-86
2021/06/23 00:14:13;;;;;;;14.50;13.30;;;18.60;99.90;;;;;;5073902;28;20188;-87
2021/06/23 00:16:41;;;;;;;15.07;13.87;;;18.50;99.90;;;;;;5038807;28;20511;-86
2021/06/23 00:19:06;;;;;;;15.40;13.20;;;18.50;99.90;;;;;;5073952;28;20529;-86
2021/06/23 00:21:32;;;;;;;16.27;14.77;;;18.50;99.90;;;;;;5073932;28;20440;-88
2021/06/23 00:23:58;;;;;;;15.33;13.73;;;18.50;99.90;;;;;;5055554;28;20527;-87
2021/06/23 00:26:24;;;;;;;14.10;12.73;;;18.40;99.90;;;;;;5073476;28;20412;-87
2021/06/23 00:28:50;;;;;;;15.73;14.13;;;18.40;99.90;;;;;;5073215;28;20223;-86
2021/06/23 00:31:16;;;;;;;15.33;13.70;;;18.40;99.90;;;;;;5073663;28;20529;-86
2021/06/23 00:33:42;;;;;;;14.70;13.30;;;18.40;99.90;;;;;;5073103;28;20246;-86
2021/06/23 00:36:08;;;;;;;14.70;13.40;;;18.40;99.90;;;;;;5073599;28;20400;-86
2021/06/23 00:38:34;;;;;;;14.90;13.60;;;18.40;99.90;;;;;;5073539;28;20469;-86
2021/06/23 00:41:00;;;;;;;15.10;13.70;;;18.40;99.90;;;;;;5073202;28;20173;-87
2021/06/23 00:43:26;;;;;;;14.80;13.40;;;18.40;99.90;;;;;;5055664;28;20563;-86
2021/06/23 00:45:52;;;;;;;14.67;13.33;;;18.40;99.90;;;;;;5072927;28;20332;-86
2021/06/23 00:48:29;;;;;;;15.10;13.63;;;18.40;99.90;;;;;;5073266;28;20522;-87
2021/06/23 00:50:59;;;;;;;15.60;14.10;;;18.40;99.90;;;;;;5072689;28;20530;-87
2021/06/23 00:53:25;;;;;;;14.80;13.30;;;18.40;99.90;;;;;;5073397;28;20774;-87
2021/06/23 00:55:55;;;;;;;14.80;13.40;;;18.40;99.90;;;;;;5072583;28;20400;-87
2021/06/23 00:58:21;;;;;;;14.07;12.57;;;18.50;99.90;;;;;;5073457;28;20427;-87
2021/06/23 01:00:50;;;;;;;13.40;12.20;;;18.50;99.90;;;;;;5072270;28;20936;-87
2021/06/23 01:03:16;;;;;;;13.10;12.00;;;18.60;99.90;;;;;;5073134;28;20408;-87
2021/06/23 01:05:42;;;;;;;13.50;12.13;;;18.70;99.90;;;;;;5072532;28;20907;-87
2021/06/23 01:08:09;;;;;;;13.47;12.27;;;18.80;99.90;;;;;;5073082;28;20735;-87
2021/06/23 01:10:36;;;;;;;12.90;11.80;;;18.80;99.90;;;;;;5072969;28;20315;-87
2021/06/23 01:13:28;;;;;;;13.70;12.40;;;18.90;99.90;;;;;;5072583;28;20408;-87
2021/06/23 01:15:58;;;;;;;13.37;12.13;;;19.00;99.90;;;;;;5072654;28;20438;-87
2021/06/23 01:18:24;;;;;;;13.10;11.80;;;19.00;99.90;;;;;;5073132;28;20400;-87
2021/06/23 01:20:50;;;;;;;12.57;11.33;;;19.00;99.90;;;;;;5072227;28;20414;-87
2021/06/23 01:23:16;;;;;;;14.37;13.00;;;19.00;99.90;;;;;;5072841;28;20482;-87
2021/06/23 01:25:43;;;;;;;17.30;13.03;;;19.00;99.90;;;;;;5054365;28;20169;-87
2021/06/23 01:28:09;;;;;;;13.37;12.13;;;19.00;99.90;;;;;;5072785;28;20800;-86
2021/06/23 01:30:35;;;;;;;13.10;11.80;;;19.00;99.90;;;;;;5054967;28;20443;-87
2021/06/23 01:33:02;;;;;;;12.23;11.23;;;19.00;99.90;;;;;;5072206;28;20173;-87
2021/06/23 01:35:30;;;;;;;14.50;13.20;;;19.00;99.90;;;;;;5072702;28;20411;-88
2021/06/23 01:37:56;;;;;;;13.97;12.77;;;18.90;99.90;;;;;;5054200;28;20883;-88
2021/06/23 01:40:22;;;;;;;13.17;12.00;;;18.90;99.90;;;;;;5072984;28;20506;-88
2021/06/23 01:42:48;;;;;;;13.70;12.40;;;18.90;99.90;;;;;;5071933;28;20942;-87
2021/06/23 01:45:15;;;;;;;14.00;12.70;;;18.80;99.90;;;;;;5050605;28;20483;-87
2021/06/23 01:47:41;;;;;;;14.50;13.30;;;18.80;99.90;;;;;;5050755;28;20189;-86
2021/06/23 01:50:09;;;;;;;13.73;12.43;;;18.70;99.90;;;;;;5052434;28;20413;-87
2021/06/23 01:52:37;;;;;;;13.53;12.43;;;18.70;99.90;;;;;;5052554;28;20477;-87
2021/06/23 01:55:03;;;;;;;14.50;13.20;;;18.70;99.90;;;;;;5050480;28;20491;-86
2021/06/23 01:57:32;;;;;;;13.70;12.60;;;18.60;99.90;;;;;;5052500;28;20937;-87
2021/06/23 01:59:58;;;;;;;14.60;13.23;;;18.60;99.90;;;;;;5051871;28;20404;-87
2021/06/23 02:02:28;;;;;;;13.93;12.63;;;18.70;99.90;;;;;;5056605;28;20423;-87
2021/06/23 02:05:03;;;;;;;14.10;12.77;;;18.60;99.90;;;;;;5055940;28;20514;-87
2021/06/23 02:07:43;;;;;;;18.20;13.67;;;18.70;99.90;;;;;;5056775;28;20423;-86
2021/06/23 02:10:29;;;;;;;14.50;13.20;;;18.70;99.90;;;;;;5055263;28;20404;-87
2021/06/23 02:13:26;;;;;;;16.83;12.83;;;18.60;99.90;;;;;;5055895;28;20400;-87
2021/06/23 02:15:52;;;;;;;17.53;13.60;;;18.60;99.90;;;;;;5055765;28;20405;-86
2021/06/23 02:18:19;;;;;;;14.70;13.30;;;18.60;99.90;;;;;;5056340;28;20445;-86
2021/06/23 02:20:45;;;;;;;14.10;12.80;;;18.50;99.90;;;;;;5055649;28;20416;-87
2021/06/23 02:23:11;;;;;;;16.10;12.80;;;18.60;99.90;;;;;;5056258;28;20407;-87
2021/06/23 02:25:38;;;;;;;14.07;12.77;;;18.60;99.90;;;;;;5054997;28;20470;-87
2021/06/23 02:28:05;;;;;;;14.67;11.87;;;18.70;99.90;;;;;;5055495;28;20404;-87
2021/06/23 02:30:30;;;;;;;13.80;12.60;;;18.80;99.90;;;;;;5055818;28;20455;-87
2021/06/23 02:32:57;;;;;;;13.50;12.40;;;18.80;99.90;;;;;;5054324;28;20903;-86
2021/06/23 02:35:24;;;;;;;14.97;13.57;;;18.80;99.90;;;;;;5055979;28;20182;-88
2021/06/23 02:37:51;;;;;;;15.10;13.80;;;18.70;99.90;;;;;;5055360;28;20426;-87
2021/06/23 02:40:18;;;;;;;15.50;13.93;;;18.80;99.90;;;;;;5055940;28;20435;-88
2021/06/23 02:42:45;;;;;;;14.57;13.20;;;18.70;99.90;;;;;;5055429;28;20404;-88
2021/06/23 02:45:12;;;;;;;14.57;13.17;;;18.70;99.90;;;;;;5069354;28;20537;-87
2021/06/23 02:47:38;;;;;;;13.87;12.50;;;18.60;99.90;;;;;;5075811;28;20414;-87
2021/06/23 02:50:05;;;;;;;14.70;13.30;;;18.60;99.90;;;;;;5075048;28;20411;-87
2021/06/23 02:52:33;;;;;;;14.43;12.90;;;18.50;99.90;;;;;;5075267;28;20410;-87
2021/06/23 02:55:01;;;;;;;14.73;13.20;;;18.60;99.90;;;;;;5074966;28;20437;-86
2021/06/23 02:57:27;;;;;;;14.23;12.60;;;18.50;99.90;;;;;;5075480;28;20426;-87
2021/06/23 02:59:55;;;;;;;15.00;13.43;;;18.50;99.90;;;;;;5074969;28;20395;-87
2021/06/23 03:02:20;;;;;;;16.43;12.90;;;18.60;99.90;;;;;;5075476;28;20407;-86
2021/06/23 03:04:48;;;;;;;14.50;13.00;;;18.70;99.90;;;;;;5057051;28;20802;-87
2021/06/23 03:07:15;;;;;;;15.10;13.63;;;18.70;99.90;;;;;;5075456;28;20539;-87
2021/06/23 03:09:43;;;;;;;13.47;12.30;;;18.70;99.90;;;;;;5057929;28;20765;-87
2021/06/23 03:12:10;;;;;;;13.10;11.87;;;18.70;99.90;;;;;;5073589;28;20462;-88
2021/06/23 03:14:37;;;;;;;15.63;13.20;;;18.70;99.90;;;;;;5074916;28;20506;-87
2021/06/23 03:17:03;;;;;;;15.43;13.80;;;18.70;99.90;;;;;;5074649;28;20415;-87
2021/06/23 03:19:28;;;;;;;18.67;14.90;;;18.70;99.90;;;;;;5075165;28;20411;-87
2021/06/23 03:21:54;;;;;;;16.80;14.97;;;18.60;99.90;;;;;;5074474;28;20299;-87
2021/06/23 03:24:21;;;;;;;18.03;15.73;;;18.60;99.90;;;;;;5075109;28;20226;-88
2021/06/23 03:26:47;;;;;;;17.33;15.53;;;18.60;99.90;;;;;;5074239;28;20411;-86
2021/06/23 03:29:30;;;;;;;17.63;14.90;;;18.60;99.90;;;;;;5075096;28;20415;-87
2021/06/23 03:31:57;;;;;;;21.33;18.80;;;18.60;99.90;;;;;;5074187;28;20500;-87
2021/06/23 03:34:24;;;;;;;18.07;16.27;;;18.60;99.90;;;;;;5075165;28;20514;-87
2021/06/23 03:36:49;;;;;;;26.00;19.23;;;18.60;99.90;;;;;;5074145;28;20400;-86
2021/06/23 03:39:15;;;;;;;22.30;18.90;;;18.70;99.90;;;;;;5074744;28;20418;-87
2021/06/23 03:41:41;;;;;;;18.03;16.33;;;18.80;99.90;;;;;;5074853;28;20180;-87
2021/06/23 03:44:07;;;;;;;24.43;21.57;;;18.80;99.90;;;;;;5073751;28;20550;-87
2021/06/23 03:46:32;;;;;;;17.83;15.70;;;18.80;99.90;;;;;;5074647;28;20215;-86
2021/06/23 03:48:58;;;;;;;17.70;15.67;;;18.80;99.90;;;;;;5074014;28;20177;-87
2021/06/23 03:51:25;;;;;;;20.00;18.07;;;18.80;99.90;;;;;;5074473;28;20232;-87
2021/06/23 03:53:51;;;;;;;17.20;15.40;;;18.70;99.90;;;;;;5073944;28;20416;-86
2021/06/23 03:56:17;;;;;;;14.60;13.10;;;18.70;99.90;;;;;;5074487;28;20407;-86
2021/06/23 03:58:43;;;;;;;17.40;15.73;;;18.60;99.90;;;;;;5074310;28;20921;-87
2021/06/23 04:01:09;;;;;;;17.83;16.17;;;18.70;99.90;;;;;;5073802;28;20865;-87
2021/06/23 04:03:35;;;;;;;21.57;18.13;;;18.60;99.90;;;;;;5074331;28;20902;-87
2021/06/23 04:06:01;;;;;;;20.37;18.47;;;18.60;99.90;;;;;;5073441;28;20442;-88
2021/06/23 04:08:27;;;;;;;21.30;17.47;;;18.60;99.90;;;;;;5074334;28;20211;-88
2021/06/23 04:10:53;;;;;;;14.03;12.70;;;18.60;99.90;;;;;;5073508;28;20450;-87
2021/06/23 04:13:19;;;;;;;16.30;14.70;;;18.70;99.90;;;;;;5074320;28;20209;-87
2021/06/23 04:15:44;;;;;;;15.23;13.60;;;18.60;99.90;;;;;;5073935;28;20181;-76
2021/06/23 04:18:10;;;;;;;13.97;12.57;;;18.60;99.60;;;;;;5073434;28;20574;-79
2021/06/23 04:20:36;;;;;;;14.37;13.00;;;18.50;99.30;;;;;;5073995;28;20656;-79
2021/06/23 04:23:02;;;;;;;15.53;12.87;;;18.70;99.30;;;;;;5072958;28;20349;-79
2021/06/23 04:25:28;;;;;;;15.33;13.93;;;18.90;99.10;;;;;;5073851;28;20184;-79
2021/06/23 04:27:54;;;;;;;16.30;14.60;;;19.20;99.90;;;;;;5072869;28;20410;-79
2021/06/23 04:30:20;;;;;;;17.03;15.23;;;19.50;99.90;;;;;;5073687;28;20462;-79
2021/06/23 04:32:46;;;;;;;16.00;14.17;;;19.80;99.50;;;;;;5073834;28;20184;-79
2021/06/23 04:35:12;;;;;;;17.17;15.43;;;20.00;98.30;;;;;;5073063;28;20415;-79
2021/06/23 04:37:40;;;;;;;14.50;13.10;;;20.20;97.40;;;;;;5073738;28;20701;-79
2021/06/23 04:40:10;;;;;;;16.20;14.43;;;20.40;96.70;;;;;;5073029;28;20421;-79
2021/06/23 04:42:36;;;;;;;13.23;12.13;;;20.50;95.80;;;;;;5073508;28;20742;-79
2021/06/23 04:45:04;;;;;;;15.87;14.37;;;20.60;95.70;;;;;;5072306;28;20459;-79
2021/06/23 04:47:30;;;;;;;12.90;11.90;;;20.70;95.30;;;;;;5073154;28;20753;-79
2021/06/23 04:49:56;;;;;;;14.97;13.77;;;20.80;95.50;;;;;;5072552;28;20415;-79
2021/06/23 04:52:23;;;;;;;12.93;11.83;;;20.90;97.80;;;;;;5073334;28;20423;-79
2021/06/23 04:54:49;;;;;;;12.97;11.63;;;21.20;97.40;;;;;;5073278;28;20443;-79
2021/06/23 04:57:15;;;;;;;13.73;12.43;;;21.50;96.00;;;;;;5072874;28;20424;-78
2021/06/23 04:59:41;;;;;;;13.83;12.50;;;21.70;94.80;;;;;;5073205;28;20791;-79
2021/06/23 05:02:07;;;;;;;13.83;12.53;;;21.80;94.50;;;;;;5072537;28;20422;-79
2021/06/23 05:04:36;;;;;;;12.23;11.13;;;21.90;94.50;;;;;;5072881;28;20448;-79
2021/06/23 05:07:04;;;;;;;14.10;13.10;;;22.00;93.60;;;;;;5072332;28;20173;-80
2021/06/23 05:09:30;;;;;;;14.10;12.80;;;22.10;93.40;;;;;;5073198;28;20412;-79
2021/06/23 05:11:56;;;;;;;11.27;9.80;;;22.10;92.80;;;;;;5072017;28;20825;-79
2021/06/23 05:14:21;;;;;;;14.57;13.40;;;22.10;92.70;;;;;;5073154;28;20427;-79
2021/06/23 05:16:50;;;;;;;12.80;11.90;;;22.20;92.50;;;;;;5072951;28;20258;-79
2021/06/23 05:19:16;;;;;;;11.37;10.40;;;22.20;92.20;;;;;;5072288;28;20644;-81
2021/06/23 05:21:42;;;;;;;15.13;13.77;;;22.30;92.20;;;;;;5072821;28;20864;-79
2021/06/23 05:24:08;;;;;;;14.20;13.10;;;22.20;90.00;;;;;;5072256;28;20492;-77
2021/06/23 05:26:34;;;;;;;14.50;13.20;;;21.90;89.50;;;;;;5072819;28;20758;-77
2021/06/23 05:29:00;;;;;;;13.73;12.60;;;21.50;90.10;;;;;;5054290;28;20410;-77
2021/06/23 05:31:26;;;;;;;14.87;13.20;;;21.10;90.70;;;;;;5072639;28;20232;-77
2021/06/23 05:33:52;;;;;;;14.80;12.33;;;20.70;91.30;;;;;;5072403;28;20176;-77
2021/06/23 05:36:18;;;;;;;16.70;12.50;;;20.40;91.90;;;;;;5071846;28;20169;-77
2021/06/23 05:38:45;;;;;;;13.47;12.27;;;20.10;92.60;;;;;;5072372;28;20392;-78
2021/06/23 05:41:11;;;;;;;13.57;12.33;;;19.80;93.40;;;;;;5071989;28;20411;-77
2021/06/23 05:43:37;;;;;;;14.50;13.00;;;19.50;94.00;;;;;;5072461;28;20415;-77
2021/06/23 05:46:02;;;;;;;16.43;13.03;;;19.20;93.90;;;;;;5071927;28;20314;-77
2021/06/23 05:48:28;;;;;;;13.87;12.40;;;19.00;94.70;;;;;;5072436;28;20173;-77
2021/06/23 05:50:54;;;;;;;16.07;13.27;;;18.80;95.40;;;;;;5071522;28;20204;-81
2021/06/23 05:53:19;;;;;;;14.23;12.73;;;18.70;96.10;;;;;;5072755;28;20556;-77
2021/06/23 05:55:45;;;;;;;14.70;13.10;;;18.60;96.70;;;;;;5072469;28;20177;-77
2021/06/23 05:58:11;;;;;;;18.10;13.33;;;18.50;96.90;;;;;;5071868;28;20177;-77
2021/06/23 06:00:37;;;;;;;14.10;12.80;;;18.40;97.30;;;;;;5072292;28;20177;-77
2021/06/23 06:03:04;;;;;;;16.10;14.60;;;18.30;97.60;;;;;;5071826;28;20173;-78
2021/06/23 06:05:30;;;;;;;13.27;11.90;;;18.30;97.60;;;;;;5072251;28;20873;-78
2021/06/23 06:07:56;;;;;;;14.27;12.87;;;18.20;97.70;;;;;;5071782;28;20399;-78
2021/06/23 06:10:22;;;;;;;16.03;14.00;;;18.20;98.30;;;;;;5072301;28;20197;-77
2021/06/23 06:12:47;;;;;;;15.40;12.90;;;18.10;98.00;;;;;;5072312;28;20227;-77
2021/06/23 06:15:14;;;;;;;14.30;12.80;;;18.10;98.40;;;;;;5071891;28;20207;-77
2021/06/23 06:17:39;;;;;;;16.60;14.63;;;18.00;98.60;;;;;;5072232;28;20173;-77
2021/06/23 06:20:06;;;;;;;13.30;12.07;;;18.00;98.90;;;;;;5071648;28;20895;-77
2021/06/23 06:22:32;;;;;;;15.13;13.03;;;17.90;98.80;;;;;;5072230;28;20651;-77
2021/06/23 06:24:59;;;;;;;13.97;12.87;;;17.90;98.70;;;;;;5071568;28;20489;-79
2021/06/23 06:27:25;;;;;;;17.70;12.77;;;17.90;98.80;;;;;;5072177;28;20898;-79
2021/06/23 06:29:51;;;;;;;14.90;13.33;;;17.80;98.50;;;;;;5072196;28;20479;-78
2021/06/23 06:32:17;;;;;;;19.80;17.63;;;17.80;98.70;;;;;;5071432;28;20930;-78
2021/06/23 06:34:42;;;;;;;15.33;14.00;;;17.80;98.90;;;;;;5071798;28;20425;-78
2021/06/23 06:37:08;;;;;;;14.57;12.97;;;17.80;99.40;;;;;;5071269;28;20617;-78
2021/06/23 06:39:34;;;;;;;16.40;14.67;;;17.70;99.40;;;;;;5071773;28;20169;-77
2021/06/23 06:42:00;;;;;;;15.07;12.40;;;17.70;99.30;;;;;;5071317;28;20569;-79
2021/06/23 06:44:29;;;;;;;21.27;18.90;;;17.80;99.50;;;;;;5071630;28;20251;-79
2021/06/23 06:46:55;;;;;;;16.00;14.57;;;17.80;99.80;;;;;;5073400;28;20180;-78
2021/06/23 06:49:21;;;;;;;14.27;12.90;;;17.80;99.50;;;;;;5075103;28;20469;-78
2021/06/23 06:51:46;;;;;;;15.20;13.13;;;17.80;99.80;;;;;;5075590;28;20208;-78
2021/06/23 06:54:12;;;;;;;17.80;16.00;;;17.80;99.50;;;;;;5074924;28;20181;-78
2021/06/23 06:56:38;;;;;;;14.07;11.93;;;17.90;99.80;;;;;;5075472;28;20169;-77
2021/06/23 06:59:04;;;;;;;15.70;11.50;;;17.90;99.20;;;;;;5074619;28;20198;-78
2021/06/23 07:01:30;;;;;;;14.50;12.97;;;17.90;99.60;;;;;;5075515;28;20272;-77
2021/06/23 07:03:55;;;;;;;14.77;13.43;;;18.00;99.80;;;;;;5075458;28;20435;-78
2021/06/23 07:06:21;;;;;;;14.97;13.23;;;18.00;99.70;;;;;;5074756;28;20169;-77
2021/06/23 07:08:47;;;;;;;16.53;12.70;;;18.00;99.20;;;;;;5057448;28;20189;-77
2021/06/23 07:11:13;;;;;;;17.13;14.13;;;18.00;99.40;;;;;;5074620;28;20450;-77
2021/06/23 07:13:38;;;;;;;15.00;13.40;;;18.00;99.40;;;;;;5075354;28;20264;-78
2021/06/23 07:16:04;;;;;;;14.13;12.77;;;18.00;99.20;;;;;;5056728;28;20644;-78
2021/06/23 07:18:31;;;;;;;13.80;12.37;;;18.00;99.00;;;;;;5075227;28;20565;-78
2021/06/23 07:20:57;;;;;;;15.83;13.23;;;18.10;99.10;;;;;;5075227;28;20907;-77
2021/06/23 07:23:23;;;;;;;14.97;13.47;;;18.10;99.20;;;;;;5074421;28;20407;-78
2021/06/23 07:25:48;;;;;;;18.37;14.00;;;18.10;99.80;;;;;;5074699;28;20416;-77
2021/06/23 07:28:18;;;;;;;13.00;11.70;;;18.10;99.20;;;;;;5074088;28;20181;-78
2021/06/23 07:30:46;;;;;;;12.80;11.50;;;18.10;99.30;;;;;;5074878;28;20201;-78
2021/06/23 07:33:12;;;;;;;16.47;14.87;;;18.20;99.30;;;;;;5074356;28;20827;-78
2021/06/23 07:38:22;;;;;;;14.43;13.13;;;18.20;99.30;;;;;;5074021;28;20171;-78
2021/06/23 07:40:56;;;;;;;14.30;13.10;;;18.20;99.50;;;;;;5074814;28;20410;-77
2021/06/23 07:43:22;;;;;;;14.83;13.43;;;18.30;99.90;;;;;;5074122;28;20415;-78
2021/06/23 07:45:51;;;;;;;18.40;13.07;;;18.20;99.50;;;;;;5074941;28;20808;-78
2021/06/23 07:48:21;;;;;;;15.53;13.90;;;18.30;99.20;;;;;;5073708;28;20173;-77
2021/06/23 07:50:52;;;;;;;15.00;13.40;;;18.30;99.20;;;;;;5074558;28;20457;-78
2021/06/23 08:10:09;;;;;;;18.63;13.57;;;18.40;99.20;;;;;;5029141;28;20476;-77
2021/06/23 08:12:41;;;;;;;15.37;13.30;;;18.40;99.50;;;;;;5074332;28;20423;-77
2021/06/23 08:15:07;;;;;;;17.40;15.73;;;18.50;99.30;;;;;;5073772;28;20427;-78
2021/06/23 08:17:33;;;;;;;15.30;13.97;;;18.50;99.30;;;;;;5074022;28;20419;-78
2021/06/23 08:19:58;;;;;;;17.37;12.80;;;18.50;99.50;;;;;;5073702;28;20409;-77
2021/06/23 08:22:24;;;;;;;13.80;12.30;;;18.60;99.90;;;;;;5073658;28;20609;-78
2021/06/23 08:24:50;;;;;;;15.50;13.90;;;18.70;99.70;;;;;;5073925;28;20177;-78
2021/06/23 08:27:15;;;;;;;17.07;14.40;;;18.80;99.70;;;;;;5073243;28;20210;-78
2021/06/23 08:29:41;;;;;;;15.20;13.57;;;18.80;99.80;;;;;;5073825;28;20620;-78
2021/06/23 08:32:08;;;;;;;14.30;13.10;;;19.00;99.80;;;;;;5073015;28;20204;-78
2021/06/23 08:34:34;;;;;;;16.07;14.50;;;19.00;99.30;;;;;;5073656;28;20173;-78
2021/06/23 08:36:59;;;;;;;15.60;14.10;;;19.20;99.30;;;;;;5073693;28;20565;-77
2021/06/23 08:39:25;;;;;;;14.23;12.73;;;19.20;98.80;;;;;;5072993;28;20962;-78
2021/06/23 08:41:51;;;;;;;13.50;12.20;;;19.30;98.50;;;;;;5073551;28;20177;-78
2021/06/23 08:44:17;;;;;;;15.43;13.97;;;19.30;98.10;;;;;;5072748;28;20496;-78
2021/06/23 08:46:45;;;;;;;13.87;12.57;;;19.30;98.90;;;;;;5073460;28;20426;-78
2021/06/23 08:49:11;;;;;;;14.87;13.23;;;19.50;99.60;;;;;;5072830;28;20534;-79
2021/06/23 08:51:39;;;;;;;14.33;12.70;;;19.60;99.50;;;;;;5072987;28;20446;-78
2021/06/23 08:54:05;;;;;;;14.37;13.03;;;19.60;99.40;;;;;;5072780;28;20419;-79
2021/06/23 08:56:31;;;;;;;15.07;13.47;;;19.70;98.60;;;;;;5073083;28;20403;-78
2021/06/23 08:58:57;;;;;;;14.23;12.97;;;19.80;97.70;;;;;;5073571;28;20605;-78
2021/06/23 09:01:22;;;;;;;17.17;14.70;;;19.90;97.60;;;;;;5072613;28;20554;-78
2021/06/23 09:04:04;;;;;;;14.90;13.50;;;19.80;96.70;;;;;;5073139;28;20173;-78
2021/06/23 09:07:00;;;;;;;16.23;14.63;;;19.80;96.60;;;;;;5073408;28;20298;-78
2021/06/23 09:09:25;;;;;;;14.70;13.17;;;19.80;97.40;;;;;;5072487;28;20900;-78
2021/06/23 09:11:54;;;;;;;14.60;13.03;;;19.80;97.10;;;;;;5072908;28;20454;-78
2021/06/23 09:14:21;;;;;;;14.47;13.17;;;19.90;97.60;;;;;;5072429;28;20181;-79
2021/06/23 09:17:07;;;;;;;12.50;11.30;;;20.10;97.70;;;;;;5055261;28;20789;-79
2021/06/23 09:19:39;;;;;;;14.23;11.73;;;20.00;95.70;;;;;;5073335;28;20411;-78
2021/06/23 09:22:25;;;;;;;15.10;13.93;;;19.90;95.60;;;;;;5072985;28;20409;-78
2021/06/23 09:24:51;;;;;;;13.73;12.33;;;20.10;96.60;;;;;;5072682;28;20411;-78
2021/06/23 09:27:27;;;;;;;13.77;12.37;;;20.10;96.10;;;;;;5071908;28;20507;-78
2021/06/23 09:29:53;;;;;;;13.23;11.83;;;20.20;96.10;;;;;;5072827;28;20597;-78
2021/06/23 09:32:21;;;;;;;13.20;12.10;;;20.10;95.70;;;;;;5072092;28;20800;-78
2021/06/23 09:34:53;;;;;;;13.50;12.30;;;20.20;95.40;;;;;;5072695;28;20412;-78
2021/06/23 09:37:37;;;;;;;14.13;12.67;;;20.30;95.70;;;;;;5072118;28;20759;-79
2021/06/23 09:40:21;;;;;;;14.43;12.93;;;20.30;96.30;;;;;;5072735;28;20392;-78
2021/06/23 09:42:48;;;;;;;14.60;12.40;;;20.40;96.40;;;;;;5072762;28;20467;-78
2021/06/23 09:45:16;;;;;;;13.00;12.00;;;20.50;96.50;;;;;;5071787;28;20455;-79
2021/06/23 09:47:44;;;;;;;14.10;12.70;;;20.60;95.80;;;;;;5072546;28;20958;-79
2021/06/23 09:50:18;;;;;;;14.00;12.47;;;20.60;95.80;;;;;;5071593;28;20407;-79
2021/06/23 09:53:03;;;;;;;14.57;13.17;;;20.70;95.70;;;;;;5072716;28;20486;-79
2021/06/23 09:55:35;;;;;;;15.50;13.07;;;20.80;96.40;;;;;;5053918;28;20429;-79
2021/06/23 09:58:14;;;;;;;15.43;13.97;;;20.90;95.90;;;;;;5072535;28;20460;-79
2021/06/23 10:00:58;;;;;;;14.23;12.90;;;21.00;96.00;;;;;;5072472;28;20413;-78
2021/06/23 10:03:25;;;;;;;13.50;12.30;;;21.00;96.00;;;;;;5071764;28;20407;-79
2021/06/23 10:05:51;;;;;;;14.27;12.87;;;21.10;95.40;;;;;;5072620;28;20419;-79
2021/06/23 10:08:22;;;;;;;14.33;13.00;;;21.10;94.70;;;;;;5071772;28;20411;-79
2021/06/23 10:10:47;;;;;;;13.90;12.57;;;21.20;95.10;;;;;;5072344;28;20241;-79
2021/06/23 10:13:15;;;;;;;14.23;12.73;;;21.20;95.20;;;;;;5071656;28;20753;-79
2021/06/23 10:15:41;;;;;;;13.23;11.93;;;21.20;94.70;;;;;;5072268;28;20180;-78
2021/06/23 10:18:07;;;;;;;13.50;12.13;;;21.20;94.10;;;;;;5072281;28;20407;-79
2021/06/23 10:20:33;;;;;;;13.77;12.17;;;21.20;94.50;;;;;;5071683;28;20548;-78
2021/06/23 10:23:03;;;;;;;12.87;11.70;;;21.20;94.70;;;;;;5075618;28;20510;-78
2021/06/23 10:25:30;;;;;;;14.50;13.13;;;21.20;94.40;;;;;;5075492;28;20217;-78
2021/06/23 10:27:57;;;;;;;13.43;12.13;;;21.20;93.30;;;;;;5075835;28;20437;-78
2021/06/23 10:30:28;;;;;;;15.60;14.20;;;21.10;93.90;;;;;;5075421;28;20399;-79
2021/06/23 10:32:55;;;;;;;13.17;12.00;;;21.10;93.60;;;;;;5075909;28;20407;-78
2021/06/23 10:35:21;;;;;;;14.10;12.40;;;21.10;94.00;;;;;;5075384;28;20972;-78
2021/06/23 10:37:49;;;;;;;14.33;13.03;;;21.20;95.10;;;;;;5076077;28;20437;-78
2021/06/23 10:40:17;;;;;;;15.00;13.60;;;21.20;93.90;;;;;;5075345;28;20439;-79
2021/06/23 10:42:43;;;;;;;14.90;13.50;;;21.20;93.90;;;;;;5075910;28;20410;-78
2021/06/23 10:45:10;;;;;;;13.77;12.40;;;21.30;94.30;;;;;;5075469;28;20451;-78
2021/06/23 10:47:47;;;;;;;15.03;13.77;;;21.40;94.80;;;;;;5074563;28;20458;-79
2021/06/23 10:50:31;;;;;;;16.33;14.20;;;21.40;94.20;;;;;;5075065;28;20403;-79
2021/06/23 10:52:57;;;;;;;15.10;13.23;;;21.50;94.90;;;;;;5075721;28;20865;-78
2021/06/23 10:55:23;;;;;;;15.43;13.57;;;21.50;94.10;;;;;;5075010;28;20757;-78
2021/06/23 10:57:51;;;;;;;16.73;13.83;;;21.50;93.40;;;;;;5075589;28;20419;-78
2021/06/23 11:00:16;;;;;;;14.43;13.23;;;21.60;93.40;;;;;;5074903;28;20168;-79
2021/06/23 11:02:46;;;;;;;16.53;14.93;;;21.60;94.90;;;;;;5075598;28;20498;-78
2021/06/23 11:05:20;;;;;;;16.43;15.10;;;21.60;94.10;;;;;;5075255;28;20252;-83
2021/06/23 11:07:47;;;;;;;19.10;17.33;;;21.70;94.20;;;;;;5075293;28;20410;-78
2021/06/23 11:10:12;;;;;;;20.23;16.23;;;21.60;93.70;;;;;;5074967;28;20501;-84
2021/06/23 11:12:44;;;;;;;18.50;16.87;;;21.70;94.00;;;;;;5075293;28;20545;-78
2021/06/23 11:15:11;;;;;;;18.07;16.57;;;21.70;94.00;;;;;;5075488;28;20201;-78
2021/06/23 11:17:37;;;;;;;16.67;15.17;;;21.70;94.00;;;;;;5074376;28;20573;-78
2021/06/23 11:20:23;;;;;;;15.27;14.00;;;21.60;93.80;;;;;;5075060;28;20403;-78
2021/06/23 11:22:56;;;;;;;15.80;14.40;;;21.70;93.30;;;;;;5074719;28;20593;-78
2021/06/23 11:25:27;;;;;;;16.53;14.93;;;21.70;93.30;;;;;;5074467;28;20415;-78
2021/06/23 11:28:08;;;;;;;15.10;13.80;;;21.70;93.20;;;;;;5075023;28;20473;-78
2021/06/23 11:30:45;;;;;;;17.13;15.53;;;21.80;93.70;;;;;;5074359;28;20721;-78
2021/06/23 11:33:37;;;;;;;16.40;15.00;;;21.90;93.70;;;;;;5073660;28;20902;-78
2021/06/23 11:36:06;;;;;;;17.50;15.83;;;22.00;93.70;;;;;;5043561;28;20505;-79
2021/06/23 11:38:32;;;;;;;15.77;14.27;;;22.10;93.60;;;;;;5074220;28;20551;-78
2021/06/23 11:41:00;;;;;;;13.57;12.47;;;22.20;93.90;;;;;;5074709;28;20418;-79
2021/06/23 11:43:26;;;;;;;14.90;13.60;;;22.20;93.60;;;;;;5074035;28;20781;-78
2021/06/23 11:45:53;;;;;;;16.20;14.70;;;22.30;92.60;;;;;;5074194;28;20483;-78
2021/06/23 11:48:19;;;;;;;17.33;15.53;;;22.30;92.30;;;;;;5074079;28;20414;-78
2021/06/23 11:50:46;;;;;;;18.20;16.43;;;22.20;92.50;;;;;;5074379;28;20455;-78
2021/06/23 11:53:15;;;;;;;14.70;13.40;;;22.30;93.10;;;;;;5074549;28;20411;-78
2021/06/23 11:55:43;;;;;;;16.00;14.60;;;22.30;93.10;;;;;;5074177;28;20910;-78
2021/06/23 11:58:08;;;;;;;14.63;13.40;;;22.30;93.30;;;;;;5074516;28;20439;-78
2021/06/23 12:00:39;;;;;;;15.13;13.73;;;22.40;92.80;;;;;;5073796;28;20926;-78
2021/06/23 12:03:10;;;;;;;16.90;15.17;;;22.30;92.70;;;;;;5086008;28;20184;-78
2021/06/23 12:05:37;;;;;;;16.30;14.83;;;22.40;92.70;;;;;;5074178;28;20423;-78
2021/06/23 12:08:03;;;;;;;15.80;14.60;;;22.30;92.20;;;;;;5093780;28;20422;-78
2021/06/23 12:10:31;;;;;;;16.33;15.00;;;22.30;92.80;;;;;;5092876;28;20409;-79
2021/06/23 12:12:57;;;;;;;16.63;15.23;;;22.30;92.90;;;;;;5064456;28;20425;-78
2021/06/23 12:15:24;;;;;;;18.10;16.50;;;22.20;93.40;;;;;;5072455;28;20447;-78
2021/06/23 12:17:56;;;;;;;17.67;15.67;;;22.20;93.40;;;;;;5077741;28;20445;-77
2021/06/23 12:20:25;;;;;;;16.53;15.17;;;22.20;92.80;;;;;;5091724;28;20442;-78
2021/06/23 12:22:57;;;;;;;17.17;15.57;;;22.20;93.60;;;;;;5093490;28;20468;-78
2021/06/23 12:25:29;;;;;;;19.37;17.53;;;22.20;93.60;;;;;;5092936;28;20390;-79
2021/06/23 12:27:55;;;;;;;20.03;18.53;;;22.30;92.80;;;;;;5075694;28;20767;-78
2021/06/23 12:30:25;;;;;;;20.07;18.20;;;22.30;92.60;;;;;;5092586;28;20546;-83
2021/06/23 12:32:51;;;;;;;19.80;18.37;;;22.30;92.30;;;;;;5075204;28;20595;-78
2021/06/23 12:35:17;;;;;;;19.33;17.83;;;22.30;91.80;;;;;;5075222;28;20914;-78
2021/06/23 12:37:43;;;;;;;20.13;18.20;;;22.10;91.50;;;;;;5093308;28;20168;-78
2021/06/23 12:40:10;;;;;;;19.93;18.13;;;22.10;92.50;;;;;;5093367;28;20414;-78
2021/06/23 12:42:35;;;;;;;21.03;18.93;;;22.10;92.70;;;;;;5092348;28;20184;-78
2021/06/23 12:45:01;;;;;;;20.20;18.40;;;22.20;93.30;;;;;;5077408;28;20474;-78
2021/06/23 12:47:27;;;;;;;21.30;19.20;;;22.10;92.40;;;;;;5058507;28;20180;-78
2021/06/23 12:49:53;;;;;;;20.47;18.60;;;22.10;92.90;;;;;;5093362;28;20209;-77
2021/06/23 12:52:19;;;;;;;20.60;19.00;;;22.10;92.20;;;;;;5093258;28;20300;-82